Pyron, Texas
Current Conditions -  °F | °C
As of 8:55 AM on Friday 19 Dec 2014 (Local Time) from KSWW Reporting Station
Overcast Overcast  
Wind Chill:   Ceiling: 300
Heat Index:   Visibility: 5mi
Dew Point:   Wind: 3mph
Humidity: 100%   Direction: 70°ENE
Pressure: 30.21"   Gusts: NA
Location:  32.3875°N, 100.536°W
Report Text: KSWW 191455Z AUTO 07003KT 5SM OVC003 05/05 A3021 RMK AO2 T00500050
Loading
Personal Weather Stations






























Interactive Weather Map New forecast layout! Learn more

10-Day Weather Forecast

Advertisements
Track Severe Weather on mobile